Ever Dainty — 9V7951 — position and weather

sailwx.info

Track history (hours):
 
Tides and Currents Weather Stations Pressure Air Temp Water Temp Dewpoint Dewpoint Depression Visibility Wind Speed Wind Dir Waves Ship Positions

Ever Dainty

Last reported at 2018-Feb-17 11:01 UTC. Time now 2018-Feb-20 04:24 UTC.
Position N 31°06' E 122°35'.

Length 294 m; draft 11.1 m.

Type: Ship (hazmat cat D). MMSI: 565106000.

Date/timePositionNaut miles runAvg speedWind from/ knotsBaromVisibWave heightAir tempDewpointWater temp
2018-Feb-17 11:01N 31°06' E 122°35'111.6
2018-Feb-17 10:55N 31°05' E 122°34'7 8.0
2018-Feb-17 10:06N 31°06' E 122°27'310.5
2018-Feb-17 09:51N 31°06' E 122°24'1413.9
2018-Feb-17 08:50N 31°12' E 122°09'1014.6
2018-Feb-17 08:11N 31°15' E 121°58'314.7
2018-Feb-17 08:00N 31°16' E 121°55'713.4
2018-Feb-17 07:30N 31°18' E 121°48'42 1.0
2018-Feb-15 12:32N 31°18' E 122°37'0 0.1
2018-Feb-15 12:29N 31°18' E 122°37'0 0.1
2018-Feb-15 11:53N 31°18' E 122°37'0 0.1
2018-Feb-15 07:29N 31°18' E 122°37'0 0.0
2018-Feb-14 22:26N 31°18' E 122°37'0 0.1
2018-Feb-14 21:59N 31°18' E 122°37'0 0.2
2018-Feb-14 21:14N 31°18' E 122°37'0 0.0
2018-Feb-14 20:59N 31°18' E 122°37'0 0.1
2018-Feb-14 20:11N 31°18' E 122°37'0 0.1
2018-Feb-14 19:56N 31°18' E 122°37'0 0.0
2018-Feb-14 19:23N 31°18' E 122°37'0 0.1
2018-Feb-14 18:59N 31°18' E 122°37'0 0.1
2018-Feb-14 18:29N 31°18' E 122°37'0 0.0
2018-Feb-14 17:59N 31°18' E 122°37'0 0.1
2018-Feb-14 17:20N 31°18' E 122°37'0 0.1
2018-Feb-14 15:47N 31°18' E 122°37'0 0.0
2018-Feb-14 15:11N 31°18' E 122°37'0 0.0
2018-Feb-14 14:56N 31°18' E 122°37'0 0.0
2018-Feb-14 10:32N 31°18' E 122°37'0 0.2
2018-Feb-14 10:29N 31°18' E 122°37'0 0.0
2018-Feb-13 09:17N 31°18' E 122°37'0 0.0
2018-Feb-13 04:25N 31°18' E 122°37'0 0.1
2018-Feb-13 02:36N 31°18' E 122°37'0 0.0
2018-Feb-12 23:29N 31°18' E 122°37'0 0.1
2018-Feb-12 23:00N 31°18' E 122°37'0 0.2
2018-Feb-12 22:27N 31°18' E 122°37'0 0.1
2018-Feb-12 22:00N 31°18' E 122°37'0 0.0
2018-Feb-12 21:30N 31°18' E 122°37'0 0.0
2018-Feb-12 21:00N 31°18' E 122°37'299 8.4
2018-Feb-11 09:16N 35°58' E 120°33'514.9
2018-Feb-11 08:57N 35°60' E 120°27'714.0
2018-Feb-11 08:29N 36°01' E 120°20'6 8.0
2018-Feb-11 07:47N 36°00' E 120°13'0 0.4
2018-Feb-11 07:11N 36°01' E 120°13'0 0.0
2018-Feb-11 05:35N 36°01' E 120°13'0 0.0
2018-Feb-11 05:05N 36°01' E 120°13'0 0.0
2018-Feb-11 04:50N 36°01' E 120°13'0 0.0
2018-Feb-11 04:20N 36°01' E 120°13'0 0.0
2018-Feb-11 03:19N 36°01' E 120°13'0 0.0
2018-Feb-11 02:48N 36°01' E 120°13'0 0.0
2018-Feb-11 01:48N 36°01' E 120°13'0 0.0
2018-Feb-11 01:18N 36°01' E 120°13'0 0.0
2018-Feb-11 00:47N 36°01' E 120°13'0 0.0
2018-Feb-10 23:47N 36°01' E 120°13'0 0.0
2018-Feb-10 22:46N 36°01' E 120°13'0 0.0
2018-Feb-10 22:16N 36°01' E 120°13'0 0.0
2018-Feb-10 21:17N 36°01' E 120°13'0 0.1
2018-Feb-10 20:46N 36°01' E 120°13'0 0.0
2018-Feb-10 20:16N 36°01' E 120°13'0 0.0
2018-Feb-10 19:51N 36°01' E 120°13'0 0.0
2018-Feb-10 19:30N 36°01' E 120°13'0 0.0
2018-Feb-10 19:00N 36°01' E 120°13'0 0.0
2018-Feb-10 18:29N 36°01' E 120°13'0 0.0
2018-Feb-10 18:00N 36°01' E 120°13'0 0.0
2018-Feb-10 17:29N 36°01' E 120°13'0 0.0
2018-Feb-10 16:59N 36°01' E 120°13'0 0.0
2018-Feb-10 15:28N 36°01' E 120°13'1 0.9
2018-Feb-10 14:43N 36°01' E 120°13'310.4
2018-Feb-10 14:28N 36°02' E 120°16'510.6
2018-Feb-10 13:58N 36°01' E 120°23'3 4.9
2018-Feb-10 13:27N 36°01' E 120°26'  
Track history (hours):
 
Tides and Currents Weather Stations Pressure Air Temp Water Temp Dewpoint Dewpoint Depression Visibility Wind Speed Wind Dir Waves Ship Positions

Ever Dainty

Last reported at 2018-Feb-17 11:01 UTC. Time now 2018-Feb-20 04:24 UTC.
Position N 31°06' E 122°35'.

Length 294 m; draft 11.1 m.

Type: Ship (hazmat cat D). MMSI: 565106000.

Date/timePositionNaut miles runAvg speedWind from/ knotsBaromVisibWave heightAir tempDewpointWater temp
2018-Feb-17 11:01N 31°06' E 122°35'111.6
2018-Feb-17 10:55N 31°05' E 122°34'7 8.0
2018-Feb-17 10:06N 31°06' E 122°27'310.5
2018-Feb-17 09:51N 31°06' E 122°24'1413.9
2018-Feb-17 08:50N 31°12' E 122°09'1014.6
2018-Feb-17 08:11N 31°15' E 121°58'314.7
2018-Feb-17 08:00N 31°16' E 121°55'713.4
2018-Feb-17 07:30N 31°18' E 121°48'42 1.0
2018-Feb-15 12:32N 31°18' E 122°37'0 0.1
2018-Feb-15 12:29N 31°18' E 122°37'0 0.1
2018-Feb-15 11:53N 31°18' E 122°37'0 0.1
2018-Feb-15 07:29N 31°18' E 122°37'0 0.0
2018-Feb-14 22:26N 31°18' E 122°37'0 0.1
2018-Feb-14 21:59N 31°18' E 122°37'0 0.2
2018-Feb-14 21:14N 31°18' E 122°37'0 0.0
2018-Feb-14 20:59N 31°18' E 122°37'0 0.1
2018-Feb-14 20:11N 31°18' E 122°37'0 0.1
2018-Feb-14 19:56N 31°18' E 122°37'0 0.0
2018-Feb-14 19:23N 31°18' E 122°37'0 0.1
2018-Feb-14 18:59N 31°18' E 122°37'0 0.1
2018-Feb-14 18:29N 31°18' E 122°37'0 0.0
2018-Feb-14 17:59N 31°18' E 122°37'0 0.1
2018-Feb-14 17:20N 31°18' E 122°37'0 0.1
2018-Feb-14 15:47N 31°18' E 122°37'0 0.0
2018-Feb-14 15:11N 31°18' E 122°37'0 0.0
2018-Feb-14 14:56N 31°18' E 122°37'0 0.0
2018-Feb-14 10:32N 31°18' E 122°37'0 0.2
2018-Feb-14 10:29N 31°18' E 122°37'0 0.0
2018-Feb-13 09:17N 31°18' E 122°37'0 0.0
2018-Feb-13 04:25N 31°18' E 122°37'0 0.1
2018-Feb-13 02:36N 31°18' E 122°37'0 0.0
2018-Feb-12 23:29N 31°18' E 122°37'0 0.1
2018-Feb-12 23:00N 31°18' E 122°37'0 0.2
2018-Feb-12 22:27N 31°18' E 122°37'0 0.1
2018-Feb-12 22:00N 31°18' E 122°37'0 0.0
2018-Feb-12 21:30N 31°18' E 122°37'0 0.0
2018-Feb-12 21:00N 31°18' E 122°37'299 8.4
2018-Feb-11 09:16N 35°58' E 120°33'514.9
2018-Feb-11 08:57N 35°60' E 120°27'714.0
2018-Feb-11 08:29N 36°01' E 120°20'6 8.0
2018-Feb-11 07:47N 36°00' E 120°13'0 0.4
2018-Feb-11 07:11N 36°01' E 120°13'0 0.0
2018-Feb-11 05:35N 36°01' E 120°13'0 0.0
2018-Feb-11 05:05N 36°01' E 120°13'0 0.0
2018-Feb-11 04:50N 36°01' E 120°13'0 0.0
2018-Feb-11 04:20N 36°01' E 120°13'0 0.0
2018-Feb-11 03:19N 36°01' E 120°13'0 0.0
2018-Feb-11 02:48N 36°01' E 120°13'0 0.0
2018-Feb-11 01:48N 36°01' E 120°13'0 0.0
2018-Feb-11 01:18N 36°01' E 120°13'0 0.0
2018-Feb-11 00:47N 36°01' E 120°13'0 0.0
2018-Feb-10 23:47N 36°01' E 120°13'0 0.0
2018-Feb-10 22:46N 36°01' E 120°13'0 0.0
2018-Feb-10 22:16N 36°01' E 120°13'0 0.0
2018-Feb-10 21:17N 36°01' E 120°13'0 0.1
2018-Feb-10 20:46N 36°01' E 120°13'0 0.0
2018-Feb-10 20:16N 36°01' E 120°13'0 0.0
2018-Feb-10 19:51N 36°01' E 120°13'0 0.0
2018-Feb-10 19:30N 36°01' E 120°13'0 0.0
2018-Feb-10 19:00N 36°01' E 120°13'0 0.0
2018-Feb-10 18:29N 36°01' E 120°13'0 0.0
2018-Feb-10 18:00N 36°01' E 120°13'0 0.0
2018-Feb-10 17:29N 36°01' E 120°13'0 0.0
2018-Feb-10 16:59N 36°01' E 120°13'0 0.0
2018-Feb-10 15:28N 36°01' E 120°13'1 0.9
2018-Feb-10 14:43N 36°01' E 120°13'310.4
2018-Feb-10 14:28N 36°02' E 120°16'510.6
2018-Feb-10 13:58N 36°01' E 120°23'3 4.9
2018-Feb-10 13:27N 36°01' E 120°26'  

Dump ship's entire track history